createdAt,value
2018-05-01T00:00:56.462Z,994.46
2018-05-01T00:01:56.451Z,994.38
2018-05-01T00:02:56.443Z,994.41
2018-05-01T00:03:56.439Z,994.44
2018-05-01T00:04:56.425Z,994.40
2018-05-01T00:05:56.417Z,994.37
2018-05-01T00:06:56.404Z,994.49
2018-05-01T00:07:56.406Z,994.41
2018-05-01T00:08:57.076Z,994.30
2018-05-01T00:09:56.372Z,994.52
2018-05-01T00:10:56.365Z,994.49
2018-05-01T00:11:56.358Z,994.46
2018-05-01T00:12:56.349Z,994.45
2018-05-01T00:13:56.336Z,994.49
2018-05-01T00:14:56.327Z,994.40
2018-05-01T00:15:56.314Z,994.46
2018-05-01T00:16:56.308Z,994.54
2018-05-01T00:17:56.292Z,994.47
2018-05-01T00:18:56.283Z,994.49
2018-05-01T00:19:56.280Z,994.59
2018-05-01T00:20:56.264Z,994.42
2018-05-01T00:21:56.253Z,994.50
2018-05-01T00:22:56.239Z,994.46
2018-05-01T00:23:56.234Z,994.50
2018-05-01T00:24:56.223Z,994.54
2018-05-01T00:25:56.211Z,994.63
2018-05-01T00:26:56.206Z,994.80
2018-05-01T00:27:56.192Z,994.47
2018-05-01T00:28:56.188Z,994.58
2018-05-01T00:29:56.180Z,994.57
2018-05-01T00:30:56.163Z,994.52
2018-05-01T00:31:56.149Z,994.68
2018-05-01T00:32:56.144Z,994.64
2018-05-01T00:33:56.132Z,994.47
2018-05-01T00:34:56.122Z,994.47
2018-05-01T00:35:56.115Z,994.58
2018-05-01T00:36:56.097Z,994.63
2018-05-01T00:37:56.094Z,994.52
2018-05-01T00:38:56.084Z,994.60
2018-05-01T00:39:56.117Z,994.64
2018-05-01T00:40:56.058Z,994.58
2018-05-01T00:41:56.046Z,994.67
2018-05-01T00:42:56.041Z,994.71
2018-05-01T00:43:56.027Z,994.59
2018-05-01T00:44:56.021Z,994.66
2018-05-01T00:45:56.010Z,994.58
2018-05-01T00:46:55.993Z,994.48
2018-05-01T00:47:55.984Z,994.68
2018-05-01T00:48:55.974Z,994.69
2018-05-01T00:49:55.965Z,994.72
2018-05-01T00:50:55.958Z,994.71
2018-05-01T00:51:55.944Z,994.73
2018-05-01T00:52:55.931Z,995.10
2018-05-01T00:53:55.925Z,994.76
2018-05-01T00:54:55.916Z,994.75
2018-05-01T00:55:55.904Z,995.01
2018-05-01T00:56:55.895Z,994.67
2018-05-01T00:57:55.884Z,994.87
2018-05-01T00:58:55.871Z,994.86
2018-05-01T00:59:55.865Z,994.83
2018-05-01T01:00:55.848Z,994.83
2018-05-01T01:01:55.840Z,994.78
2018-05-01T01:02:55.836Z,994.80
2018-05-01T01:03:55.823Z,994.91
2018-05-01T01:04:55.818Z,994.76
2018-05-01T01:05:55.803Z,994.75
2018-05-01T01:06:55.792Z,994.80
2018-05-01T01:07:55.782Z,994.82
2018-05-01T01:08:55.778Z,994.77
2018-05-01T01:09:55.768Z,994.75
2018-05-01T01:10:55.753Z,994.92
2018-05-01T01:11:55.742Z,994.85
2018-05-01T01:12:55.731Z,994.80
2018-05-01T01:13:55.717Z,994.85
2018-05-01T01:14:55.717Z,994.84
2018-05-01T01:15:55.696Z,994.86
2018-05-01T01:16:55.693Z,994.79
2018-05-01T01:17:55.679Z,994.92
2018-05-01T01:18:55.664Z,994.88
2018-05-01T01:19:55.657Z,995.01
2018-05-01T01:20:55.665Z,995.02
2018-05-01T01:21:55.636Z,994.90
2018-05-01T01:22:55.637Z,994.98
2018-05-01T01:23:55.616Z,994.86
2018-05-01T01:24:55.609Z,994.87
2018-05-01T01:25:55.599Z,994.93
2018-05-01T01:26:55.581Z,995.00
2018-05-01T01:27:55.575Z,994.93
2018-05-01T01:28:55.562Z,994.97
2018-05-01T01:29:55.551Z,994.98
2018-05-01T01:30:55.546Z,995.01
2018-05-01T01:31:55.538Z,994.93
2018-05-01T01:32:55.526Z,994.82
2018-05-01T01:33:55.516Z,994.96
2018-05-01T01:34:55.500Z,994.95
2018-05-01T01:35:55.490Z,994.98
2018-05-01T01:36:55.487Z,994.94
2018-05-01T01:37:55.480Z,995.02
2018-05-01T01:38:55.457Z,994.91
2018-05-01T01:39:55.450Z,995.04
2018-05-01T01:40:55.444Z,995.03
2018-05-01T01:41:55.429Z,994.98
2018-05-01T01:42:55.420Z,995.08
2018-05-01T01:43:55.421Z,995.01
2018-05-01T01:44:55.402Z,995.07
2018-05-01T01:45:55.392Z,995.01
2018-05-01T01:46:55.379Z,995.09
2018-05-01T01:47:55.377Z,995.02
2018-05-01T01:48:55.363Z,995.02
2018-05-01T01:49:55.349Z,995.08
2018-05-01T01:50:55.350Z,995.10
2018-05-01T01:51:55.330Z,995.22
2018-05-01T01:52:55.321Z,995.21
2018-05-01T01:53:55.308Z,995.11
2018-05-01T01:54:55.300Z,995.20
2018-05-01T01:55:55.292Z,995.16
2018-05-01T01:56:55.274Z,995.18
2018-05-01T01:57:55.270Z,995.17
2018-05-01T01:58:55.259Z,995.14
2018-05-01T01:59:55.246Z,995.22
2018-05-01T02:00:55.234Z,995.08
2018-05-01T02:01:55.239Z,995.05
2018-05-01T02:02:55.211Z,995.10
2018-05-01T02:03:55.201Z,995.09
2018-05-01T02:04:55.198Z,995.16
2018-05-01T02:05:55.183Z,995.16
2018-05-01T02:06:55.171Z,995.22
2018-05-01T02:07:55.173Z,995.26
2018-05-01T02:08:55.148Z,995.25
2018-05-01T02:09:55.141Z,995.24
2018-05-01T02:10:55.132Z,995.35
2018-05-01T02:11:55.122Z,995.07
2018-05-01T02:12:55.111Z,995.25
2018-05-01T02:13:55.101Z,995.30
2018-05-01T02:14:55.090Z,995.23
2018-05-01T02:15:55.079Z,995.11
2018-05-01T02:16:55.067Z,995.23
2018-05-01T02:17:55.055Z,995.27
2018-05-01T02:18:55.044Z,995.21
2018-05-01T02:19:55.040Z,995.01
2018-05-01T02:20:55.032Z,995.19
2018-05-01T02:21:55.025Z,995.24
2018-05-01T02:22:55.007Z,995.30
2018-05-01T02:23:54.993Z,995.35
2018-05-01T02:24:55.579Z,995.21
2018-05-01T02:25:54.973Z,995.29
2018-05-01T02:26:54.963Z,995.58
2018-05-01T02:27:54.954Z,995.34
2018-05-01T02:28:54.946Z,994.73
2018-05-01T02:29:54.935Z,995.30
2018-05-01T02:30:54.921Z,995.39
2018-05-01T02:31:54.919Z,995.45
2018-05-01T02:32:54.902Z,995.37
2018-05-01T02:33:54.894Z,995.39
2018-05-01T02:34:54.883Z,995.41
2018-05-01T02:35:54.877Z,995.31
2018-05-01T02:36:54.862Z,995.42
2018-05-01T02:37:54.850Z,995.38
2018-05-01T02:38:54.835Z,995.34
2018-05-01T02:39:54.833Z,995.31
2018-05-01T02:40:54.818Z,995.33
2018-05-01T02:41:54.815Z,995.50
2018-05-01T02:42:54.805Z,995.38
2018-05-01T02:43:54.805Z,995.00
2018-05-01T02:44:54.777Z,995.66
2018-05-01T02:45:54.767Z,995.51
2018-05-01T02:46:54.754Z,995.64
2018-05-01T02:47:54.746Z,995.45
2018-05-01T02:48:54.742Z,995.54
2018-05-01T02:49:54.732Z,995.33
2018-05-01T02:50:54.716Z,995.25
2018-05-01T02:51:54.701Z,995.59
2018-05-01T02:52:54.693Z,995.42
2018-05-01T02:53:54.682Z,995.57
2018-05-01T02:54:54.671Z,995.36
2018-05-01T02:55:54.662Z,995.45
2018-05-01T02:56:54.653Z,995.54
2018-05-01T02:57:54.644Z,995.48
2018-05-01T02:58:54.633Z,995.29
2018-05-01T02:59:54.618Z,995.55
2018-05-01T03:00:54.609Z,995.47
2018-05-01T03:01:54.603Z,995.61
2018-05-01T03:02:54.591Z,995.49
2018-05-01T03:03:54.579Z,995.66
2018-05-01T03:04:54.570Z,995.63
2018-05-01T03:05:54.555Z,995.64
2018-05-01T03:06:54.552Z,995.50
2018-05-01T03:07:54.543Z,995.51
2018-05-01T03:08:54.529Z,995.58
2018-05-01T03:09:54.591Z,995.56
2018-05-01T03:10:54.508Z,995.65
2018-05-01T03:11:54.502Z,995.63
2018-05-01T03:12:54.486Z,995.61
2018-05-01T03:13:54.472Z,995.71
2018-05-01T03:14:54.467Z,995.60
2018-05-01T03:15:54.452Z,995.60
2018-05-01T03:16:54.445Z,995.67
2018-05-01T03:17:54.436Z,995.68
2018-05-01T03:18:54.421Z,995.75
2018-05-01T03:19:54.413Z,995.70
2018-05-01T03:20:54.401Z,995.75
2018-05-01T03:21:54.390Z,995.80
2018-05-01T03:22:54.380Z,995.70
2018-05-01T03:23:54.374Z,995.77
2018-05-01T03:24:54.362Z,995.71
2018-05-01T03:25:54.351Z,995.77
2018-05-01T03:26:54.338Z,995.82
2018-05-01T03:27:54.325Z,995.75
2018-05-01T03:28:54.327Z,995.74
2018-05-01T03:29:54.315Z,995.79
2018-05-01T03:30:54.298Z,995.70
2018-05-01T03:31:54.286Z,995.75
2018-05-01T03:32:54.277Z,995.84
2018-05-01T03:33:54.264Z,995.81
2018-05-01T03:34:54.253Z,995.88
2018-05-01T03:35:54.247Z,995.79
2018-05-01T03:36:54.245Z,995.82
2018-05-01T03:37:54.229Z,995.79
2018-05-01T03:38:54.286Z,995.88
2018-05-01T03:39:54.201Z,995.81
2018-05-01T03:40:54.192Z,995.84
2018-05-01T03:41:54.178Z,995.85
2018-05-01T03:42:54.169Z,995.92
2018-05-01T03:43:54.169Z,995.96
2018-05-01T03:44:54.156Z,995.96
2018-05-01T03:45:54.145Z,995.90
2018-05-01T03:46:54.131Z,995.87
2018-05-01T03:47:54.121Z,995.88
2018-05-01T03:48:54.111Z,996.02
2018-05-01T03:49:54.095Z,996.05
2018-05-01T03:50:54.087Z,996.00
2018-05-01T03:51:54.081Z,996.05
2018-05-01T03:52:54.064Z,996.04
2018-05-01T03:53:54.061Z,995.99
2018-05-01T03:54:54.045Z,996.03
2018-05-01T03:55:54.055Z,995.97
2018-05-01T03:56:54.027Z,995.97
2018-05-01T03:57:54.014Z,996.09
2018-05-01T03:58:54.005Z,996.16
2018-05-01T03:59:53.993Z,995.93
2018-05-01T04:00:53.985Z,996.10
2018-05-01T04:01:53.975Z,996.14
2018-05-01T04:02:53.959Z,996.19
2018-05-01T04:03:53.952Z,996.23
2018-05-01T04:04:53.937Z,996.17
2018-05-01T04:05:53.931Z,996.23
2018-05-01T04:06:53.925Z,996.27
2018-05-01T04:07:53.910Z,996.31
2018-05-01T04:08:53.897Z,996.26
2018-05-01T04:09:53.889Z,996.27
2018-05-01T04:10:53.876Z,996.16
2018-05-01T04:11:53.866Z,996.40
2018-05-01T04:12:53.862Z,996.59
2018-05-01T04:13:53.850Z,996.34
2018-05-01T04:14:53.835Z,996.37
2018-05-01T04:15:53.829Z,996.56
2018-05-01T04:16:53.816Z,996.49
2018-05-01T04:17:53.805Z,996.50
2018-05-01T04:18:53.797Z,996.43
2018-05-01T04:19:53.785Z,996.40
2018-05-01T04:20:53.779Z,996.49
2018-05-01T04:21:53.766Z,996.37
2018-05-01T04:22:53.752Z,996.45
2018-05-01T04:23:53.744Z,996.73
2018-05-01T04:24:53.735Z,996.39
2018-05-01T04:25:53.722Z,996.63
2018-05-01T04:26:53.709Z,996.67
2018-05-01T04:27:53.702Z,996.53
2018-05-01T04:28:53.692Z,996.55
2018-05-01T04:29:53.683Z,996.55
2018-05-01T04:30:53.670Z,996.51
2018-05-01T04:31:53.658Z,996.63
2018-05-01T04:32:53.661Z,996.62
2018-05-01T04:33:53.646Z,996.85
2018-05-01T04:34:53.633Z,996.73
2018-05-01T04:35:53.616Z,996.70
2018-05-01T04:36:53.604Z,996.70
2018-05-01T04:37:53.595Z,996.84
2018-05-01T04:38:53.583Z,996.71
2018-05-01T04:39:53.578Z,996.70
2018-05-01T04:40:53.574Z,996.71
2018-05-01T04:41:53.557Z,996.83
2018-05-01T04:42:53.552Z,996.86
2018-05-01T04:43:53.537Z,996.82
2018-05-01T04:44:53.521Z,996.97
2018-05-01T04:45:53.509Z,996.92
2018-05-01T04:46:53.499Z,996.75
2018-05-01T04:47:53.496Z,996.93
2018-05-01T04:48:53.478Z,996.98
2018-05-01T04:49:53.469Z,997.04
2018-05-01T04:50:53.460Z,996.93
2018-05-01T04:51:53.447Z,997.05
2018-05-01T04:52:53.451Z,997.06
2018-05-01T04:53:53.432Z,996.99
2018-05-01T04:54:53.418Z,997.15
2018-05-01T04:55:53.412Z,997.00
2018-05-01T04:56:53.397Z,997.18
2018-05-01T04:57:53.394Z,997.12
2018-05-01T04:58:53.375Z,997.19
2018-05-01T04:59:53.366Z,997.12
2018-05-01T05:00:53.358Z,997.25
2018-05-01T05:01:53.346Z,997.27
2018-05-01T05:02:53.337Z,997.25
2018-05-01T05:03:53.323Z,997.23
2018-05-01T05:04:53.316Z,997.29
2018-05-01T05:05:53.306Z,997.31
2018-05-01T05:06:53.296Z,997.31
2018-05-01T05:07:53.285Z,997.33
2018-05-01T05:08:53.273Z,997.32
2018-05-01T05:09:53.272Z,997.23
2018-05-01T05:10:53.258Z,997.36
2018-05-01T05:11:53.246Z,997.30
2018-05-01T05:12:53.232Z,997.42
2018-05-01T05:13:53.222Z,997.46
2018-05-01T05:14:53.220Z,997.45
2018-05-01T05:15:53.200Z,997.54
2018-05-01T05:16:53.194Z,997.50
2018-05-01T05:17:53.177Z,997.56
2018-05-01T05:18:53.172Z,997.44
2018-05-01T05:19:53.165Z,997.64
2018-05-01T05:20:53.145Z,997.62
2018-05-01T05:21:53.139Z,997.60
2018-05-01T05:22:53.131Z,997.63
2018-05-01T05:23:53.121Z,997.72
2018-05-01T05:24:53.104Z,997.68
2018-05-01T05:25:53.092Z,997.76
2018-05-01T05:26:53.081Z,997.80
2018-05-01T05:27:53.076Z,997.87
2018-05-01T05:28:53.067Z,997.82
2018-05-01T05:29:53.056Z,997.76
2018-05-01T05:30:53.047Z,997.85
2018-05-01T05:31:53.040Z,997.88
2018-05-01T05:32:53.023Z,997.89
2018-05-01T05:33:53.013Z,997.78
2018-05-01T05:34:53.001Z,997.89
2018-05-01T05:35:52.994Z,997.94
2018-05-01T05:36:52.984Z,998.07
2018-05-01T05:37:52.968Z,997.98
2018-05-01T05:38:52.962Z,997.92
2018-05-01T05:39:52.952Z,997.97
2018-05-01T05:40:52.943Z,998.05
2018-05-01T05:41:52.932Z,997.98
2018-05-01T05:42:52.970Z,998.06
2018-05-01T05:43:52.909Z,998.01
2018-05-01T05:44:52.900Z,998.06
2018-05-01T05:45:52.891Z,998.12
2018-05-01T05:46:52.877Z,998.10
2018-05-01T05:47:52.872Z,998.07
2018-05-01T05:48:52.884Z,998.13
2018-05-01T05:49:52.843Z,998.30
2018-05-01T05:50:52.835Z,998.11
2018-05-01T05:51:52.832Z,998.41
2018-05-01T05:52:52.814Z,998.40
2018-05-01T05:53:52.804Z,998.23
2018-05-01T05:54:52.796Z,998.44
2018-05-01T05:55:52.787Z,998.39
2018-05-01T05:56:52.782Z,998.40
2018-05-01T05:57:52.772Z,998.35
2018-05-01T05:58:52.755Z,998.41
2018-05-01T05:59:52.739Z,998.50
2018-05-01T06:00:52.731Z,998.42
2018-05-01T06:01:52.721Z,998.42
2018-05-01T06:02:52.715Z,998.41
2018-05-01T06:03:52.707Z,998.47
2018-05-01T06:04:52.694Z,998.40
2018-05-01T06:05:52.681Z,998.53
2018-05-01T06:06:52.673Z,998.52
2018-05-01T06:07:52.658Z,998.48
2018-05-01T06:08:52.651Z,998.52
2018-05-01T06:09:52.642Z,998.51
2018-05-01T06:10:52.631Z,998.63
2018-05-01T06:11:52.623Z,998.61
2018-05-01T06:12:52.613Z,998.70
2018-05-01T06:13:52.596Z,998.74
2018-05-01T06:14:52.588Z,998.82
2018-05-01T06:15:52.580Z,998.79
2018-05-01T06:16:52.572Z,998.73
2018-05-01T06:17:52.562Z,998.70
2018-05-01T06:18:52.551Z,998.68
2018-05-01T06:19:52.539Z,998.83
2018-05-01T06:20:52.528Z,998.92
2018-05-01T06:21:52.593Z,998.76
2018-05-01T06:22:52.504Z,998.85
2018-05-01T06:23:52.498Z,998.81
2018-05-01T06:24:52.490Z,998.77
2018-05-01T06:25:52.472Z,998.77
2018-05-01T06:26:52.463Z,998.76
2018-05-01T06:27:52.457Z,998.96
2018-05-01T06:28:52.444Z,998.90
2018-05-01T06:29:52.433Z,998.90
2018-05-01T06:30:52.428Z,998.68
2018-05-01T06:31:52.415Z,998.92
2018-05-01T06:32:52.399Z,998.91
2018-05-01T06:33:52.395Z,998.86
2018-05-01T06:34:52.387Z,998.98
2018-05-01T06:35:52.373Z,999.05
2018-05-01T06:36:52.393Z,998.90
2018-05-01T06:37:52.350Z,999.03
2018-05-01T06:38:52.343Z,999.03
2018-05-01T06:39:52.333Z,999.07
2018-05-01T06:40:52.323Z,999.05
2018-05-01T06:41:52.315Z,999.06
2018-05-01T06:42:52.301Z,999.06
2018-05-01T06:43:52.366Z,998.94
2018-05-01T06:44:52.279Z,999.17
2018-05-01T06:45:52.272Z,999.19
2018-05-01T06:46:52.268Z,999.14
2018-05-01T06:47:52.251Z,999.26
2018-05-01T06:48:52.242Z,999.35
2018-05-01T06:49:52.225Z,999.22
2018-05-01T06:50:52.294Z,999.07
2018-05-01T06:51:52.210Z,999.44
2018-05-01T06:52:52.206Z,999.27
2018-05-01T06:53:52.193Z,999.52
2018-05-01T06:54:52.179Z,999.20
2018-05-01T06:55:52.170Z,999.45
2018-05-01T06:56:52.159Z,999.52
2018-05-01T06:57:52.156Z,999.51
2018-05-01T06:58:52.148Z,999.52
2018-05-01T06:59:52.127Z,999.60
2018-05-01T07:00:52.120Z,999.58
2018-05-01T07:01:52.107Z,999.58
2018-05-01T07:02:52.099Z,999.59
2018-05-01T07:03:52.092Z,999.60
2018-05-01T07:04:52.073Z,999.64
2018-05-01T07:05:52.065Z,999.61
2018-05-01T07:06:52.063Z,999.71
2018-05-01T07:07:52.051Z,999.70
2018-05-01T07:08:52.035Z,999.63
2018-05-01T07:09:52.023Z,999.80
2018-05-01T07:10:52.020Z,999.87
2018-05-01T07:11:52.008Z,999.92
2018-05-01T07:12:51.996Z,999.78
2018-05-01T07:13:51.989Z,999.85
2018-05-01T07:14:51.978Z,999.81
2018-05-01T07:15:51.971Z,999.80
2018-05-01T07:16:51.990Z,999.76
2018-05-01T07:17:51.945Z,999.81
2018-05-01T07:18:51.930Z,1000.03
2018-05-01T07:19:51.922Z,999.81
2018-05-01T07:20:51.911Z,999.89
2018-05-01T07:21:51.905Z,999.85
2018-05-01T07:22:51.894Z,999.93
2018-05-01T07:23:51.880Z,1000.40
2018-05-01T07:24:51.870Z,999.98
2018-05-01T07:25:51.859Z,1000.01
2018-05-01T07:26:51.851Z,1000.02
2018-05-01T07:27:51.842Z,1000.02
2018-05-01T07:28:51.837Z,999.98
2018-05-01T07:29:51.826Z,1000.11
2018-05-01T07:30:51.813Z,1000.15
2018-05-01T07:31:52.618Z,1000.04
2018-05-01T07:32:51.791Z,1000.10
2018-05-01T07:33:51.781Z,1000.17
2018-05-01T07:34:51.778Z,1000.19
2018-05-01T07:35:51.768Z,1000.19
2018-05-01T07:36:51.756Z,1000.25
2018-05-01T07:37:51.740Z,1000.25
2018-05-01T07:38:51.728Z,1000.16
2018-05-01T07:39:51.721Z,1000.26
2018-05-01T07:40:51.709Z,1000.26
2018-05-01T07:41:51.726Z,1000.20
2018-05-01T07:42:51.691Z,1000.21
2018-05-01T07:43:51.681Z,1000.34
2018-05-01T07:44:51.670Z,1000.29
2018-05-01T07:45:51.661Z,1000.30
2018-05-01T07:46:51.649Z,1000.42
2018-05-01T07:47:51.640Z,1000.35
2018-05-01T07:48:51.627Z,1000.38
2018-05-01T07:49:51.626Z,1000.35
2018-05-01T07:50:51.613Z,1000.37
2018-05-01T07:51:51.605Z,1000.39
2018-05-01T07:52:51.591Z,1000.41
2018-05-01T07:53:51.581Z,1000.44
2018-05-01T07:54:51.572Z,1000.16
2018-05-01T07:55:51.560Z,1000.42
2018-05-01T07:56:51.554Z,1000.57
2018-05-01T07:57:51.542Z,1000.49
2018-05-01T07:58:51.532Z,1000.50
2018-05-01T07:59:51.518Z,1000.53
2018-05-01T08:00:51.512Z,1000.55
2018-05-01T08:01:51.500Z,1000.52
2018-05-01T08:02:51.494Z,1000.61
2018-05-01T08:03:51.482Z,1000.57
2018-05-01T08:04:51.473Z,1000.56
2018-05-01T08:05:51.464Z,1000.64
2018-05-01T08:06:51.456Z,1000.54
2018-05-01T08:07:51.443Z,1000.65
2018-05-01T08:08:51.431Z,1000.64
2018-05-01T08:09:51.427Z,1000.66
2018-05-01T08:10:51.414Z,1000.71
2018-05-01T08:11:51.407Z,1000.71
2018-05-01T08:12:51.394Z,1000.65
2018-05-01T08:13:52.107Z,1000.79
2018-05-01T08:14:51.375Z,1000.75
2018-05-01T08:15:51.361Z,1000.80
2018-05-01T08:16:51.353Z,1000.76
2018-05-01T08:17:51.341Z,1000.83
2018-05-01T08:18:51.337Z,1000.82
2018-05-01T08:19:51.324Z,1000.89
2018-05-01T08:20:51.313Z,1000.86
2018-05-01T08:21:51.300Z,1000.89
2018-05-01T08:22:51.293Z,1000.93
2018-05-01T08:23:51.281Z,1000.92
2018-05-01T08:24:51.278Z,1001.06
2018-05-01T08:25:51.275Z,1000.85
2018-05-01T08:26:51.258Z,1001.01
2018-05-01T08:27:51.265Z,1001.11
2018-05-01T08:28:51.257Z,1001.03
2018-05-01T08:29:51.223Z,1000.94
2018-05-01T08:30:51.229Z,1000.98
2018-05-01T08:31:51.210Z,1001.13
2018-05-01T08:32:51.196Z,1001.13
2018-05-01T08:33:51.186Z,1001.05
2018-05-01T08:34:51.184Z,1001.11
2018-05-01T08:35:51.166Z,1001.17
2018-05-01T08:36:51.163Z,1000.67
2018-05-01T08:37:51.154Z,1001.26
2018-05-01T08:38:51.136Z,1001.11
2018-05-01T08:39:51.130Z,1001.17
2018-05-01T08:40:51.120Z,1001.14
2018-05-01T08:41:51.116Z,1001.18
2018-05-01T08:42:51.105Z,1001.26
2018-05-01T08:43:51.088Z,1001.30
2018-05-01T08:44:51.077Z,1001.30
2018-05-01T08:45:51.073Z,1001.26
2018-05-01T08:46:51.065Z,1001.39
2018-05-01T08:47:51.056Z,1001.40
2018-05-01T08:48:51.045Z,1001.32
2018-05-01T08:49:51.041Z,1001.50
2018-05-01T08:50:51.023Z,1001.40
2018-05-01T08:51:51.014Z,1001.40
2018-05-01T08:52:51.009Z,1001.40
2018-05-01T08:53:50.998Z,1001.45
2018-05-01T08:54:50.996Z,1001.41
2018-05-01T08:55:50.977Z,1001.46
2018-05-01T08:56:50.968Z,1001.51
2018-05-01T08:57:50.972Z,1001.48
2018-05-01T08:58:50.953Z,1001.60
2018-05-01T08:59:50.942Z,1001.69
2018-05-01T09:00:50.938Z,1001.62
2018-05-01T09:01:50.925Z,1001.76
2018-05-01T09:02:50.912Z,1001.63
2018-05-01T09:03:50.903Z,1001.61
2018-05-01T09:04:50.917Z,1001.64
2018-05-01T09:05:50.891Z,1001.64
2018-05-01T09:06:50.882Z,1001.49
2018-05-01T09:07:50.877Z,1001.75
2018-05-01T09:08:50.864Z,1001.79
2018-05-01T09:09:50.857Z,1001.75
2018-05-01T09:10:50.847Z,1001.77
2018-05-01T09:11:50.838Z,1001.89
2018-05-01T09:12:50.832Z,1001.90
2018-05-01T09:13:50.824Z,1001.91
2018-05-01T09:14:50.816Z,1002.01
2018-05-01T09:15:50.806Z,1001.96
2018-05-01T09:16:50.799Z,1001.89
2018-05-01T09:17:50.924Z,1001.90
2018-05-01T09:18:50.780Z,1001.93
2018-05-01T09:19:50.770Z,1001.98
2018-05-01T09:20:50.767Z,1001.96
2018-05-01T09:21:50.756Z,1002.01
2018-05-01T09:22:50.753Z,1002.04
2018-05-01T09:23:50.738Z,1002.01
2018-05-01T09:24:50.728Z,1002.09
2018-05-01T09:25:50.726Z,1002.03
2018-05-01T09:26:50.720Z,1002.17
2018-05-01T09:27:50.703Z,1002.13
2018-05-01T09:28:50.694Z,1002.08
2018-05-01T09:29:50.685Z,1002.06
2018-05-01T09:30:50.676Z,1002.12
2018-05-01T09:31:50.670Z,1002.22
2018-05-01T09:32:50.662Z,1002.21
2018-05-01T09:33:53.628Z,1002.18
2018-05-01T09:35:12.721Z,1002.16
2018-05-01T09:35:50.643Z,1002.21
2018-05-01T09:36:50.628Z,1002.17
2018-05-01T09:37:50.623Z,1002.25
2018-05-01T09:38:50.613Z,1002.32
2018-05-01T09:39:50.622Z,1002.28
2018-05-01T09:40:50.602Z,1002.19
2018-05-01T09:41:50.625Z,1002.18
2018-05-01T09:42:50.583Z,1002.17
2018-05-01T09:43:50.576Z,1002.30
2018-05-01T09:44:50.567Z,1002.35
2018-05-01T09:45:50.562Z,1002.29
2018-05-01T09:46:50.559Z,1002.38
2018-05-01T09:47:50.548Z,1002.46
2018-05-01T09:48:50.540Z,1002.14
2018-05-01T09:49:50.533Z,1002.33
2018-05-01T09:50:50.520Z,1002.34
2018-05-01T09:51:50.516Z,1002.44
2018-05-01T09:52:50.510Z,1002.36
2018-05-01T09:53:50.503Z,1002.39
2018-05-01T09:54:50.496Z,1002.30
2018-05-01T09:55:50.488Z,1002.34
2018-05-01T09:56:50.476Z,1002.29
2018-05-01T09:57:50.467Z,1002.31
2018-05-01T09:58:50.461Z,1002.26
2018-05-01T09:59:50.459Z,1002.41
2018-05-01T10:00:50.451Z,1002.41
2018-05-01T10:01:50.559Z,1002.44
2018-05-01T10:02:50.434Z,1002.30
2018-05-01T10:03:50.424Z,1002.29
2018-05-01T10:04:50.420Z,1002.34
2018-05-01T10:05:50.415Z,1002.50
2018-05-01T10:06:50.408Z,1002.35
2018-05-01T10:07:50.404Z,1002.52
2018-05-01T10:08:50.395Z,1002.41
2018-05-01T10:09:50.383Z,1002.60
2018-05-01T10:10:50.383Z,1002.66
2018-05-01T10:11:50.379Z,1002.48
2018-05-01T10:12:50.365Z,1002.49
2018-05-01T10:13:50.357Z,1002.50
2018-05-01T10:14:50.351Z,1002.45
2018-05-01T10:15:50.344Z,1002.53
2018-05-01T10:16:50.347Z,1002.55
2018-05-01T10:17:50.344Z,1002.61
2018-05-01T10:18:50.322Z,1002.56
2018-05-01T10:19:50.317Z,1002.68
2018-05-01T10:20:50.310Z,1002.64
2018-05-01T10:21:50.301Z,1002.77
2018-05-01T10:22:50.291Z,1002.63
2018-05-01T10:23:50.290Z,1002.67
2018-05-01T10:24:50.282Z,1002.64
2018-05-01T10:25:50.273Z,1002.56
2018-05-01T10:26:50.264Z,1002.58
2018-05-01T10:27:50.259Z,1002.67
2018-05-01T10:28:50.248Z,1002.57
2018-05-01T10:29:50.238Z,1002.65
2018-05-01T10:30:50.237Z,1002.72
2018-05-01T10:31:50.225Z,1002.79
2018-05-01T10:32:50.228Z,1002.82
2018-05-01T10:33:50.211Z,1002.71
2018-05-01T10:34:50.212Z,1002.75
2018-05-01T10:35:50.196Z,1002.77
2018-05-01T10:36:50.201Z,1002.70
2018-05-01T10:37:50.182Z,1002.67
2018-05-01T10:38:50.333Z,1002.77
2018-05-01T10:39:51.186Z,1002.57
2018-05-01T10:40:50.161Z,1002.84
2018-05-01T10:41:50.154Z,1002.85
2018-05-01T10:42:50.145Z,1002.72
2018-05-01T10:43:50.142Z,1002.77
2018-05-01T10:44:50.138Z,1002.86
2018-05-01T10:45:50.186Z,1002.77
2018-05-01T10:46:50.125Z,1002.80
2018-05-01T10:47:50.124Z,1002.92
2018-05-01T10:48:50.112Z,1002.87
2018-05-01T10:49:50.110Z,1003.01
2018-05-01T10:50:50.098Z,1002.96
2018-05-01T10:51:50.091Z,1003.06
2018-05-01T10:52:50.088Z,1002.91
2018-05-01T10:53:50.086Z,1003.11
2018-05-01T10:54:50.075Z,1002.97
2018-05-01T10:55:50.078Z,1003.00
2018-05-01T10:56:50.069Z,1003.01
2018-05-01T10:57:50.062Z,1002.91
2018-05-01T10:58:50.056Z,1002.96
2018-05-01T10:59:50.050Z,1002.93
2018-05-01T11:00:50.051Z,1002.91
2018-05-01T11:01:50.048Z,1002.97
2018-05-01T11:02:50.042Z,1003.09
2018-05-01T11:03:50.033Z,1003.02
2018-05-01T11:04:50.031Z,1003.01
2018-05-01T11:05:50.025Z,1003.07
2018-05-01T11:06:50.025Z,1003.04
2018-05-01T11:07:50.010Z,1003.02
2018-05-01T11:08:50.010Z,1003.03
2018-05-01T11:09:50.028Z,1003.04
2018-05-01T11:10:49.997Z,1003.18
2018-05-01T11:11:50.041Z,1003.06
2018-05-01T11:12:49.987Z,1003.22
2018-05-01T11:13:49.984Z,1003.15
2018-05-01T11:14:49.976Z,1003.11
2018-05-01T11:15:49.974Z,1003.21
2018-05-01T11:16:49.969Z,1003.13
2018-05-01T11:17:49.960Z,1003.31
2018-05-01T11:18:49.954Z,1003.27
2018-05-01T11:19:49.947Z,1003.24
2018-05-01T11:20:49.945Z,1003.31
2018-05-01T11:21:49.942Z,1003.30
2018-05-01T11:22:49.930Z,1003.24
2018-05-01T11:23:49.928Z,1003.24
2018-05-01T11:24:49.921Z,1003.17
2018-05-01T11:25:49.915Z,1003.23
2018-05-01T11:26:49.972Z,1003.26
2018-05-01T11:27:49.911Z,1003.30
2018-05-01T11:28:49.906Z,1003.27
2018-05-01T11:29:49.903Z,1003.31
2018-05-01T11:30:49.911Z,1003.30
2018-05-01T11:31:49.882Z,1003.30
2018-05-01T11:32:49.879Z,1003.40
2018-05-01T11:33:49.870Z,1003.40
2018-05-01T11:34:49.866Z,1003.50
2018-05-01T11:35:49.871Z,1003.43
2018-05-01T11:36:49.862Z,1003.54
2018-05-01T11:37:49.859Z,1003.50
2018-05-01T11:38:49.847Z,1003.36
2018-05-01T11:39:49.846Z,1003.52
2018-05-01T11:40:49.844Z,1003.47
2018-05-01T11:41:49.835Z,1003.55
2018-05-01T11:42:49.836Z,1003.55
2018-05-01T11:43:49.829Z,1003.52
2018-05-01T11:44:49.825Z,1003.51
2018-05-01T11:45:49.821Z,1003.51
2018-05-01T11:46:49.814Z,1003.60
2018-05-01T11:47:49.820Z,1003.71
2018-05-01T11:48:49.817Z,1003.67
2018-05-01T11:49:49.805Z,1003.62
2018-05-01T11:50:49.799Z,1003.58
2018-05-01T11:51:49.796Z,1003.60
2018-05-01T11:52:49.792Z,1003.64
2018-05-01T11:53:49.852Z,1003.63
2018-05-01T11:54:49.791Z,1003.69
2018-05-01T11:55:49.784Z,1003.70
2018-05-01T11:56:49.782Z,1003.65
2018-05-01T11:57:49.771Z,1003.63
2018-05-01T11:58:49.772Z,1003.72
2018-05-01T11:59:49.764Z,1003.70
2018-05-01T12:00:49.761Z,1003.66
2018-05-01T12:01:49.756Z,1003.61
2018-05-01T12:02:49.765Z,1003.76
2018-05-01T12:03:49.758Z,1003.79
2018-05-01T12:04:49.750Z,1003.84
2018-05-01T12:05:49.747Z,1003.76
2018-05-01T12:06:49.741Z,1003.84
2018-05-01T12:07:49.735Z,1003.93
2018-05-01T12:08:49.748Z,1003.91
2018-05-01T12:09:49.726Z,1003.94
2018-05-01T12:10:49.725Z,1003.94
2018-05-01T12:11:49.722Z,1003.91
2018-05-01T12:12:49.716Z,1004.05
2018-05-01T12:13:49.723Z,1003.97
2018-05-01T12:14:49.711Z,1004.05
2018-05-01T12:15:49.709Z,1004.00
2018-05-01T12:16:49.704Z,1004.05
2018-05-01T12:17:49.700Z,1003.98
2018-05-01T12:18:49.696Z,1004.14
2018-05-01T12:19:49.698Z,1004.10